Time;durP1;ratioP1;P1;durP2;ratioP2;P2;SDS_P1;SDS_P2;PMS_P1;PMS_P2;Temp;Humidity;BMP_temperature;BMP_pressure;BME280_temperature;BME280_humidity;BME280_pressure;Samples;Min_cycle;Max_cycle;Signal;HPM_P1;HPM_P2
2020/12/07 00:00:28;;;;;;;19.27;8.38;;;;;;;-9.55;71.89;102711.77;1715504;82;21017;-35
2020/12/07 00:02:58;;;;;;;19.87;8.83;;;;;;;-9.57;71.94;102696.94;1715568;83;20973;-33
2020/12/07 00:05:26;;;;;;;31.68;8.85;;;;;;;-9.65;72.22;102704.08;1715553;83;22423;-32
2020/12/07 00:07:54;;;;;;;22.90;7.65;;;;;;;-9.69;72.35;102689.47;1715435;82;20945;-32
2020/12/07 00:10:23;;;;;;;25.92;8.60;;;;;;;-9.70;72.32;102712.77;1715533;83;20933;-33
2020/12/07 00:12:51;;;;;;;22.02;8.43;;;;;;;-9.70;72.40;102715.28;1715456;83;20929;-33
2020/12/07 00:15:19;;;;;;;32.67;8.70;;;;;;;-9.77;72.67;102712.86;1715571;83;20997;-32
2020/12/07 00:17:46;;;;;;;23.83;8.70;;;;;;;-9.77;72.73;102704.09;1715547;83;21320;-33
2020/12/07 00:20:16;;;;;;;16.20;7.97;;;;;;;-9.78;72.75;102707.33;1715338;83;21032;-32
2020/12/07 00:22:44;;;;;;;21.00;8.50;;;;;;;-9.83;72.86;102695.23;1715498;83;20992;-33
2020/12/07 00:25:12;;;;;;;18.05;7.87;;;;;;;-9.78;72.58;102708.23;1715463;83;21020;-33
2020/12/07 00:27:41;;;;;;;18.05;7.05;;;;;;;-9.81;72.58;102711.30;1715472;83;20918;-32
2020/12/07 00:30:09;;;;;;;21.25;8.00;;;;;;;-9.76;72.27;102703.35;1715473;83;21122;-32
2020/12/07 00:32:36;;;;;;;18.57;7.72;;;;;;;-9.79;72.43;102715.59;1715455;83;21004;-33
2020/12/07 00:35:04;;;;;;;20.32;8.33;;;;;;;-9.81;72.36;102712.56;1715475;83;20910;-34
2020/12/07 00:37:32;;;;;;;20.88;8.60;;;;;;;-9.85;72.61;102711.73;1715492;83;20961;-35
2020/12/07 00:40:00;;;;;;;17.50;7.80;;;;;;;-9.88;72.79;102713.03;1715477;83;20886;-33
2020/12/07 00:42:28;;;;;;;19.48;8.20;;;;;;;-9.94;72.94;102700.80;1715391;83;22443;-33
2020/12/07 00:44:56;;;;;;;27.32;9.38;;;;;;;-9.94;72.90;102713.68;1716774;82;21052;-33
2020/12/07 00:47:23;;;;;;;19.05;7.80;;;;;;;-9.93;72.76;102711.69;1729454;83;20994;-33
2020/12/07 00:49:52;;;;;;;20.00;8.28;;;;;;;-9.97;72.86;102715.53;1729419;83;20930;-33
2020/12/07 00:52:20;;;;;;;20.95;8.28;;;;;;;-9.99;73.07;102716.96;1729339;82;20990;-32
2020/12/07 00:54:48;;;;;;;22.07;8.78;;;;;;;-9.95;72.75;102711.55;1729414;83;21297;-33
2020/12/07 00:57:15;;;;;;;18.65;8.90;;;;;;;-10.00;72.95;102708.58;1729373;81;21038;-33
2020/12/07 00:59:44;;;;;;;20.50;8.90;;;;;;;-10.05;73.17;102708.83;1729413;83;20923;-32
2020/12/07 01:02:12;;;;;;;21.77;8.68;;;;;;;-10.05;73.20;102695.05;1729363;83;20943;-32
2020/12/07 01:04:40;;;;;;;23.95;8.70;;;;;;;-10.07;73.16;102706.54;1729364;83;21022;-32
2020/12/07 01:07:09;;;;;;;17.90;7.70;;;;;;;-10.06;73.06;102702.05;1729370;83;21371;-35
2020/12/07 01:09:38;;;;;;;19.75;8.13;;;;;;;-10.08;73.25;102704.41;1729338;83;21505;-33
2020/12/07 01:12:08;;;;;;;19.52;8.48;;;;;;;-10.11;73.25;102692.45;1729353;83;21062;-33
2020/12/07 01:14:39;;;;;;;19.87;7.87;;;;;;;-10.11;73.17;102696.55;1728624;83;21029;-34
2020/12/07 01:17:08;;;;;;;24.47;9.68;;;;;;;-10.13;73.17;102697.67;1729366;83;20986;-33
2020/12/07 01:19:36;;;;;;;21.97;8.48;;;;;;;-10.13;73.20;102702.69;1729383;83;21374;-34
2020/12/07 01:22:05;;;;;;;18.07;7.97;;;;;;;-10.12;73.06;102694.44;1729318;83;21005;-32
2020/12/07 01:24:35;;;;;;;19.75;7.55;;;;;;;-10.11;73.16;102682.77;1729365;83;20947;-33
2020/12/07 01:27:04;;;;;;;19.73;8.33;;;;;;;-10.16;73.29;102676.06;1729319;83;21010;-32
2020/12/07 01:29:34;;;;;;;21.55;8.70;;;;;;;-10.17;73.33;102689.33;1729411;83;20943;-33
2020/12/07 01:32:04;;;;;;;25.35;8.83;;;;;;;-10.16;73.19;102687.34;1729382;82;21199;-33
2020/12/07 01:34:32;;;;;;;24.72;8.50;;;;;;;-10.21;73.47;102686.00;1729329;83;21006;-33
2020/12/07 01:37:01;;;;;;;24.10;8.18;;;;;;;-10.19;73.30;102688.28;1702382;83;21481;-33
2020/12/07 01:39:30;;;;;;;21.62;8.58;;;;;;;-10.25;73.50;102689.80;1728721;83;20950;-34
2020/12/07 01:42:00;;;;;;;19.55;8.73;;;;;;;-10.27;73.57;102692.52;1729345;83;20951;-33
2020/12/07 01:44:28;;;;;;;21.93;8.75;;;;;;;-10.26;73.63;102684.61;1729368;82;21353;-33
2020/12/07 01:46:57;;;;;;;18.95;8.83;;;;;;;-10.26;73.55;102703.41;1713185;83;21009;-32
2020/12/07 01:49:25;;;;;;;24.92;8.78;;;;;;;-10.32;73.74;102698.68;1729477;83;21477;-33
2020/12/07 01:51:53;;;;;;;19.42;8.63;;;;;;;-10.33;73.73;102691.89;1729318;82;20896;-34
2020/12/07 01:54:21;;;;;;;25.85;9.18;;;;;;;-10.29;73.53;102688.97;1702437;83;20946;-32
2020/12/07 01:56:51;;;;;;;23.50;7.78;;;;;;;-10.28;73.32;102684.83;1729230;83;21359;-33
2020/12/07 01:59:19;;;;;;;24.20;8.58;;;;;;;-10.28;73.35;102675.70;1729310;83;21037;-33
2020/12/07 02:01:47;;;;;;;27.00;8.45;;;;;;;-10.26;73.27;102687.12;1729362;82;21009;-33
2020/12/07 02:04:16;;;;;;;27.48;8.55;;;;;;;-10.31;73.41;102671.64;1729274;82;21069;-33
2020/12/07 02:06:44;;;;;;;26.20;9.28;;;;;;;-10.31;73.41;102687.02;1729349;83;20999;-33
2020/12/07 02:09:13;;;;;;;27.95;8.35;;;;;;;-10.32;73.41;102687.75;1702461;83;21273;-33
2020/12/07 02:11:42;;;;;;;18.77;8.25;;;;;;;-10.36;73.60;102692.80;1727847;83;20978;-32
2020/12/07 02:14:10;;;;;;;23.07;8.83;;;;;;;-10.35;73.52;102680.83;1729263;83;21014;-34
2020/12/07 02:16:39;;;;;;;15.90;7.97;;;;;;;-10.39;73.63;102688.73;1729290;82;20998;-32
2020/12/07 02:19:06;;;;;;;22.87;7.85;;;;;;;-10.41;73.59;102693.64;1729294;83;20994;-33
2020/12/07 02:21:36;;;;;;;20.35;8.25;;;;;;;-10.39;73.60;102682.48;1729029;83;21380;-32
2020/12/07 02:24:29;;;;;;;22.37;8.13;;;;;;;-10.42;73.78;102689.36;1812798;77;22692;-33
2020/12/07 02:26:59;;;;;;;19.00;7.78;;;;;;;-10.46;73.81;102689.78;1781503;80;20956;-32
2020/12/07 02:29:29;;;;;;;30.35;8.80;;;;;;;-10.47;73.82;102703.04;1784332;80;21698;-35
2020/12/07 02:32:15;;;;;;;18.35;8.23;;;;;;;-10.50;74.01;102690.55;1784012;80;20911;-32
2020/12/07 02:34:48;;;;;;;25.05;8.18;;;;;;;-10.48;73.92;102686.59;1783864;80;21006;-35
2020/12/07 02:37:17;;;;;;;21.27;8.98;;;;;;;-10.43;73.69;102695.45;1753929;80;21030;-35
2020/12/07 02:39:47;;;;;;;18.80;8.25;;;;;;;-10.45;73.62;102689.41;1784082;80;21034;-34
2020/12/07 02:42:14;;;;;;;19.95;8.00;;;;;;;-10.44;73.64;102687.42;1784153;80;21326;-36
2020/12/07 02:44:42;;;;;;;22.17;8.40;;;;;;;-10.48;73.81;102691.25;1784326;80;21354;-35
2020/12/07 02:47:15;;;;;;;25.60;7.10;;;;;;;-10.47;73.80;102690.87;1784077;79;21422;-34
2020/12/07 02:49:44;;;;;;;19.82;7.95;;;;;;;-10.43;73.61;102684.19;1784267;80;21504;-34
2020/12/07 02:52:13;;;;;;;19.50;9.00;;;;;;;-10.43;73.51;102692.60;1784293;80;21484;-35
2020/12/07 02:54:42;;;;;;;23.42;8.28;;;;;;;-10.41;73.48;102696.15;1784258;80;21422;-36
2020/12/07 02:57:12;;;;;;;22.15;8.88;;;;;;;-10.44;73.50;102695.84;1782667;80;21010;-35
2020/12/07 02:59:40;;;;;;;22.45;8.45;;;;;;;-10.44;73.60;102695.84;1753741;80;21124;-34
2020/12/07 03:02:08;;;;;;;21.87;8.13;;;;;;;-10.46;73.70;102697.65;1784188;80;20915;-34
2020/12/07 03:04:36;;;;;;;23.83;8.00;;;;;;;-10.47;73.67;102693.02;1784252;80;20899;-33
2020/12/07 03:07:04;;;;;;;17.80;7.92;;;;;;;-10.44;73.68;102693.33;1784148;80;21188;-35
2020/12/07 03:09:33;;;;;;;23.27;8.68;;;;;;;-10.42;73.60;102693.47;1784180;80;20972;-33
2020/12/07 03:12:03;;;;;;;23.40;9.13;;;;;;;-10.40;73.57;102694.13;1784246;80;21014;-33
2020/12/07 03:14:32;;;;;;;28.40;7.95;;;;;;;-10.41;73.61;102682.38;1784152;80;21520;-34
2020/12/07 03:17:00;;;;;;;30.45;7.80;;;;;;;-10.44;73.83;102689.58;1784245;80;20983;-34
2020/12/07 03:19:28;;;;;;;22.65;7.90;;;;;;;-10.48;73.92;102683.73;1784202;80;21183;-34
2020/12/07 03:21:57;;;;;;;22.85;8.73;;;;;;;-10.47;73.86;102691.77;1784126;80;20982;-33
2020/12/07 03:24:25;;;;;;;16.62;6.83;;;;;;;-10.47;73.95;102689.27;1792386;80;21033;-35
2020/12/07 03:26:54;;;;;;;18.37;7.85;;;;;;;-10.45;73.97;102694.06;1793588;80;20998;-34
2020/12/07 03:29:24;;;;;;;23.32;7.40;;;;;;;-10.50;74.19;102687.67;1793700;80;20927;-34
2020/12/07 03:31:52;;;;;;;21.52;8.48;;;;;;;-10.48;74.11;102686.23;1793567;80;21341;-34
2020/12/07 03:34:21;;;;;;;19.73;8.08;;;;;;;-10.50;74.21;102687.67;1793536;80;21142;-35
2020/12/07 03:36:49;;;;;;;18.90;7.83;;;;;;;-10.47;74.17;102678.34;1793113;80;20994;-34
2020/12/07 03:39:19;;;;;;;16.62;8.20;;;;;;;-10.45;74.07;102670.27;1792775;80;20931;-33
2020/12/07 03:41:48;;;;;;;25.12;7.83;;;;;;;-10.50;74.19;102678.91;1791526;80;20974;-33
2020/12/07 03:44:16;;;;;;;20.92;8.58;;;;;;;-10.47;74.19;102680.50;1793098;80;21373;-34
2020/12/07 03:46:44;;;;;;;16.35;7.55;;;;;;;-10.48;74.16;102679.98;1764044;80;21004;-34
2020/12/07 03:49:13;;;;;;;24.27;9.15;;;;;;;-10.49;74.27;102690.70;1793180;80;21505;-34
2020/12/07 03:51:42;;;;;;;18.90;8.08;;;;;;;-10.51;74.38;102685.89;1793123;80;21010;-34
2020/12/07 03:54:11;;;;;;;15.32;7.10;;;;;;;-10.53;74.33;102669.83;1792992;80;20970;-35
2020/12/07 03:56:40;;;;;;;18.67;7.20;;;;;;;-10.47;74.06;102680.84;1793207;80;22226;-33
2020/12/07 03:59:08;;;;;;;17.50;6.83;;;;;;;-10.48;74.04;102683.73;1792981;80;20923;-33
2020/12/07 04:01:38;;;;;;;19.62;8.38;;;;;;;-10.45;73.93;102686.90;1793101;80;20923;-33
2020/12/07 04:04:10;;;;;;;15.93;7.30;;;;;;;-10.49;74.06;102683.56;1792990;80;21042;-34
2020/12/07 04:06:41;;;;;;;21.80;7.80;;;;;;;-10.51;74.05;102683.77;1793144;80;20919;-35
2020/12/07 04:09:07;;;;;;;12.23;6.03;;;;;;;-10.49;73.90;102694.83;1793148;80;22770;-33
2020/12/07 04:11:35;;;;;;;18.90;7.20;;;;;;;-10.47;73.66;102688.02;1792999;80;20974;-34
2020/12/07 04:14:03;;;;;;;19.52;8.08;;;;;;;-10.43;73.70;102696.70;1793032;80;20966;-35
2020/12/07 04:16:31;;;;;;;17.12;7.37;;;;;;;-10.47;73.79;102698.38;1793154;80;20970;-34
2020/12/07 04:18:59;;;;;;;14.10;6.12;;;;;;;-10.51;73.97;102688.40;1792959;80;20935;-35
2020/12/07 04:21:27;;;;;;;17.42;7.33;;;;;;;-10.47;73.66;102682.09;1793173;80;22494;-33
2020/12/07 04:23:56;;;;;;;19.30;7.22;;;;;;;-10.50;73.69;102691.80;1783954;80;20936;-33
2020/12/07 04:26:25;;;;;;;16.07;6.20;;;;;;;-10.45;73.58;102690.30;1775846;80;20983;-33
2020/12/07 04:28:52;;;;;;;29.00;7.80;;;;;;;-10.49;73.70;102681.06;1775921;80;21054;-35
2020/12/07 04:31:20;;;;;;;13.88;5.78;;;;;;;-10.50;73.59;102675.53;1775909;80;20999;-33
2020/12/07 04:33:48;;;;;;;20.52;7.37;;;;;;;-10.51;73.66;102677.52;1775924;80;21292;-34
2020/12/07 04:36:17;;;;;;;15.45;6.97;;;;;;;-10.51;73.55;102672.12;1775775;80;20994;-34
2020/12/07 04:38:45;;;;;;;17.10;6.03;;;;;;;-10.51;73.50;102670.87;1775894;80;20939;-33
2020/12/07 04:41:13;;;;;;;14.58;6.72;;;;;;;-10.50;73.58;102656.75;1775823;80;20999;-33
2020/12/07 04:43:41;;;;;;;21.80;8.40;;;;;;;-10.51;73.48;102669.62;1775861;80;20956;-34
2020/12/07 04:46:09;;;;;;;20.20;7.47;;;;;;;-10.51;73.45;102677.13;1775795;80;21347;-33
2020/12/07 04:48:37;;;;;;;17.62;7.10;;;;;;;-10.48;73.35;102682.83;1715049;80;20903;-33
2020/12/07 04:51:05;;;;;;;22.48;7.30;;;;;;;-10.55;73.61;102691.33;1738951;80;20971;-33
2020/12/07 04:53:33;;;;;;;14.23;6.35;;;;;;;-10.58;73.75;102689.76;1739024;80;20975;-34
2020/12/07 04:56:01;;;;;;;18.23;7.12;;;;;;;-10.55;73.62;102683.46;1714909;80;20945;-34
2020/12/07 04:58:29;;;;;;;20.15;7.75;;;;;;;-10.53;73.57;102686.11;1739029;80;21144;-33
2020/12/07 05:00:57;;;;;;;17.80;6.78;;;;;;;-10.58;73.74;102682.25;1775842;80;20932;-33
2020/12/07 05:03:25;;;;;;;26.30;7.87;;;;;;;-10.56;73.68;102685.80;1775799;80;20987;-34
2020/12/07 05:05:53;;;;;;;19.92;7.25;;;;;;;-10.56;73.66;102692.05;1775838;80;20983;-34
2020/12/07 05:08:23;;;;;;;17.82;6.97;;;;;;;-10.55;73.57;102689.72;1775849;80;20907;-33
2020/12/07 05:10:50;;;;;;;17.73;7.72;;;;;;;-10.55;73.73;102696.33;1775786;80;21364;-33
2020/12/07 05:15:48;;;;;;;19.23;7.60;;;;;;;-10.62;73.95;102702.70;1775869;80;21003;-34
2020/12/07 05:18:15;;;;;;;17.73;7.85;;;;;;;-10.59;73.91;102696.75;1775739;80;20991;-33
2020/12/07 05:20:43;;;;;;;25.37;6.90;;;;;;;-10.60;73.99;102702.48;1775848;80;20980;-33
2020/12/07 05:23:15;;;;;;;15.05;7.25;;;;;;;-10.62;74.07;102690.17;1775978;80;21116;-35
2020/12/07 05:25:48;;;;;;;16.73;7.25;;;;;;;-10.59;74.02;102687.98;1775754;80;20979;-34
2020/12/07 05:28:19;;;;;;;25.23;7.05;;;;;;;-10.58;73.87;102678.14;1775712;80;20995;-34
2020/12/07 05:30:51;;;;;;;15.90;6.67;;;;;;;-10.61;74.10;102680.69;1775832;80;21054;-33
2020/12/07 05:33:19;;;;;;;15.72;7.37;;;;;;;-10.61;74.20;102677.83;1732288;80;68525;-34
2020/12/07 05:35:53;;;;;;;18.87;7.12;;;;;;;-10.63;74.23;102673.38;1631393;88;21249;-33
2020/12/07 05:38:21;;;;;;;18.62;6.42;;;;;;;-10.60;74.06;102669.94;1631519;88;20963;-34
2020/12/07 05:40:49;;;;;;;17.37;7.55;;;;;;;-10.59;74.16;102655.44;1611287;88;21003;-33
2020/12/07 05:43:17;;;;;;;17.40;7.60;;;;;;;-10.56;73.99;102693.30;1631465;87;20998;-35
2020/12/07 05:45:45;;;;;;;25.55;7.60;;;;;;;-10.51;73.75;102683.39;1631480;88;21031;-34
2020/12/07 05:48:12;;;;;;;23.50;7.40;;;;;;;-10.49;73.78;102680.67;1611057;88;21391;-35
2020/12/07 05:50:43;;;;;;;14.33;6.75;;;;;;;-10.47;73.56;102693.02;1631394;88;20967;-33
2020/12/07 05:53:11;;;;;;;29.00;7.35;;;;;;;-10.45;73.51;102695.31;1631304;88;21185;-35
2020/12/07 05:55:39;;;;;;;19.73;6.55;;;;;;;-10.43;73.46;102697.61;1631475;86;20952;-33
2020/12/07 05:58:09;;;;;;;14.63;7.25;;;;;;;-10.43;73.70;102692.95;1631342;88;20947;-33
2020/12/07 06:00:37;;;;;;;16.75;6.33;;;;;;;-10.37;73.16;102689.78;1611227;88;21587;-34
2020/12/07 06:03:06;;;;;;;17.00;6.15;;;;;;;-10.31;72.87;102687.02;1631287;86;21093;-35
2020/12/07 06:05:34;;;;;;;26.17;7.60;;;;;;;-10.30;72.88;102690.95;1631436;87;21537;-34
2020/12/07 06:08:07;;;;;;;17.12;6.58;;;;;;;-10.25;72.71;102687.64;1631356;88;20967;-34
2020/12/07 06:10:40;;;;;;;21.52;5.50;;;;;;;-10.23;72.67;102678.66;1631470;87;21529;-34
2020/12/07 06:13:21;;;;;;;13.18;5.33;;;;;;;-10.18;72.50;102678.78;1810466;77;22784;-34
2020/12/07 06:15:49;;;;;;;22.87;7.42;;;;;;;-10.17;72.21;102670.53;1782475;80;20987;-36
2020/12/07 06:18:36;;;;;;;19.37;7.40;;;;;;;-10.15;72.08;102675.33;1752170;80;21350;-32
2020/12/07 06:21:17;;;;;;;19.00;7.33;;;;;;;-10.14;72.38;102680.86;1782221;80;20924;-34
2020/12/07 06:23:47;;;;;;;10.18;5.12;;;;;;;-10.04;71.93;102671.76;1756754;80;20915;-35
2020/12/07 06:26:17;;;;;;;26.80;5.35;;;;;;;-9.97;71.09;102675.04;1782328;80;20911;-34
2020/12/07 06:28:49;;;;;;;14.53;7.22;;;;;;;-9.95;71.31;102689.00;1782363;80;21442;-34
2020/12/07 06:31:19;;;;;;;12.90;6.10;;;;;;;-9.93;71.33;102680.36;1782314;80;21363;-35
2020/12/07 06:33:52;;;;;;;19.98;6.55;;;;;;;-9.91;71.16;102673.53;1782349;80;20971;-34
2020/12/07 06:36:30;;;;;;;13.75;6.00;;;;;;;-9.86;70.91;102671.45;1782264;80;20986;-33
2020/12/07 06:39:03;;;;;;;15.05;5.40;;;;;;;-9.83;70.89;102655.11;1782307;80;21555;-33
2020/12/07 06:41:43;;;;;;;18.92;6.92;;;;;;;-9.81;71.13;102662.80;1782324;80;20959;-33
2020/12/07 06:44:19;;;;;;;19.90;6.33;;;;;;;-9.75;70.91;102667.52;1781941;80;21362;-34
2020/12/07 06:47:03;;;;;;;14.68;6.75;;;;;;;-9.72;70.41;102662.84;1782381;80;21421;-34
2020/12/07 06:52:13;;;;;;;21.40;7.37;;;;;;;-9.64;70.92;102656.05;1782236;80;21002;-34
2020/12/07 06:57:42;;;;;;;15.72;5.53;;;;;;;-9.54;70.11;102650.84;1782344;80;21185;-36
2020/12/07 07:00:18;;;;;;;16.10;6.22;;;;;;;-9.52;70.13;102616.75;1754266;80;20994;-34
2020/12/07 07:02:54;;;;;;;12.05;5.85;;;;;;;-9.48;70.10;102628.34;1782297;80;21058;-34
2020/12/07 07:05:26;;;;;;;18.05;6.70;;;;;;;-9.46;69.93;102635.67;1782298;80;20908;-35
2020/12/07 07:07:54;;;;;;;13.83;6.15;;;;;;;-9.43;70.20;102644.36;1782237;80;20903;-34
2020/12/07 07:10:24;;;;;;;9.73;6.03;;;;;;;-9.36;69.79;102634.92;1782322;80;21600;-36
2020/12/07 07:12:52;;;;;;;15.95;6.22;;;;;;;-9.32;69.53;102639.14;1782620;80;20923;-36
2020/12/07 07:15:21;;;;;;;12.65;6.05;;;;;;;-9.28;69.92;102627.80;1783102;80;20990;-35
2020/12/07 07:17:49;;;;;;;20.02;6.50;;;;;;;-9.21;69.01;102636.42;1782991;80;20947;-35
2020/12/07 07:20:17;;;;;;;26.40;7.10;;;;;;;-9.21;69.59;102621.75;1783129;80;21066;-35
2020/12/07 07:22:48;;;;;;;14.87;6.35;;;;;;;-9.15;69.45;102633.25;1782982;80;21362;-32
2020/12/07 07:30:22;;;;;;;17.90;6.83;;;;;;;-8.93;69.49;102628.17;1782564;80;20919;-34
2020/12/07 07:32:52;;;;;;;14.50;5.92;;;;;;;-8.90;68.81;102619.28;1782408;80;20975;-35
2020/12/07 07:35:23;;;;;;;14.00;7.05;;;;;;;-8.91;68.53;102601.58;1782536;80;21340;-32
2020/12/07 07:37:51;;;;;;;11.75;6.17;;;;;;;-8.93;68.44;102604.31;1782470;80;20975;-34
2020/12/07 07:40:22;;;;;;;13.40;6.70;;;;;;;-8.93;68.87;102610.59;1782427;80;21011;-34
2020/12/07 07:43:00;;;;;;;14.83;6.55;;;;;;;-8.88;68.69;102616.94;1782603;80;21662;-34
2020/12/07 07:45:36;;;;;;;17.05;5.83;;;;;;;-8.83;68.57;102617.00;1782554;80;20990;-34
2020/12/07 08:15:55;;;;;;;20.37;7.05;;;;;;;-8.03;66.23;102613.48;1768024;81;21356;-34
2020/12/07 08:18:34;;;;;;;15.88;7.25;;;;;;;-8.04;66.37;102606.69;1767980;81;20953;-33
2020/12/07 08:21:03;;;;;;;25.65;8.13;;;;;;;-8.04;66.10;102530.36;1767944;81;21415;-34
2020/12/07 08:23:33;;;;;;;19.75;6.58;;;;;;;-7.99;66.12;102581.94;1767920;81;20960;-33
2020/12/07 08:26:01;;;;;;;16.65;6.65;;;;;;;-7.92;65.40;102563.27;1768013;81;20935;-32
2020/12/07 08:28:37;;;;;;;22.55;7.35;;;;;;;-7.89;65.96;102573.61;1767958;81;21353;-34
2020/12/07 08:31:18;;;;;;;26.45;8.20;;;;;;;-7.82;65.58;102555.84;1767997;81;21566;-33
2020/12/07 08:34:14;;;;;;;23.05;6.95;;;;;;;-7.76;65.48;102561.77;1767964;80;20912;-32
2020/12/07 08:36:44;;;;;;;14.28;6.95;;;;;;;-7.67;65.02;102553.81;1768057;81;21000;-34
2020/12/07 08:39:12;;;;;;;18.05;7.72;;;;;;;-7.59;65.62;102554.47;1767961;81;20932;-35
2020/12/07 08:41:39;;;;;;;12.88;6.53;;;;;;;-7.46;64.92;102543.50;1767865;81;21183;-33
2020/12/07 08:44:09;;;;;;;20.10;7.70;;;;;;;-7.38;64.23;102513.98;1767857;81;21007;-34
2020/12/07 08:46:39;;;;;;;18.80;6.80;;;;;;;-7.28;64.72;102542.11;1767906;81;20944;-34
2020/12/07 08:49:07;;;;;;;18.32;7.80;;;;;;;-7.12;64.34;102522.92;1767873;81;20865;-33
2020/12/07 08:51:36;;;;;;;15.80;7.15;;;;;;;-7.08;64.35;102531.25;1767933;81;20980;-32
2020/12/07 08:54:04;;;;;;;17.05;7.05;;;;;;;-7.03;63.63;102519.06;1767932;81;21340;-33
2020/12/07 08:56:32;;;;;;;18.62;7.35;;;;;;;-7.00;63.83;102511.77;1767930;81;20935;-33
2020/12/07 08:59:00;;;;;;;19.52;9.03;;;;;;;-6.86;63.65;102517.59;1767754;81;20964;-34
2020/12/07 09:01:28;;;;;;;20.85;7.53;;;;;;;-6.73;63.80;102517.41;1767920;81;20992;-33
2020/12/07 09:03:56;;;;;;;20.40;7.10;;;;;;;-6.61;62.72;102504.56;1767959;81;20912;-32
2020/12/07 09:06:24;;;;;;;16.27;6.33;;;;;;;-6.53;62.81;102498.92;1768080;81;22861;-35
2020/12/07 09:11:35;;;;;;;21.02;7.70;;;;;;;-6.45;61.45;102500.44;1777159;79;22098;-33
2020/12/07 09:14:02;;;;;;;23.95;7.37;;;;;;;-6.50;61.93;102502.59;1749869;82;20923;-34
2020/12/07 09:16:30;;;;;;;16.75;7.50;;;;;;;-6.41;61.10;102503.74;1749747;80;21153;-34
2020/12/07 09:18:58;;;;;;;16.75;7.83;;;;;;;-6.42;61.38;102500.72;1749692;82;20903;-33
2020/12/07 09:21:26;;;;;;;25.12;8.03;;;;;;;-6.27;60.66;102505.25;1749864;82;20907;-36
2020/12/07 09:23:54;;;;;;;18.70;6.92;;;;;;;-6.21;60.54;102468.83;1749824;81;21477;-32
2020/12/07 09:26:22;;;;;;;14.70;6.72;;;;;;;-6.15;59.76;102476.03;1749907;82;20884;-34
2020/12/07 09:28:50;;;;;;;24.45;7.80;;;;;;;-6.12;59.29;102475.02;1749885;82;22120;-33
2020/12/07 09:31:19;;;;;;;15.48;7.33;;;;;;;-6.14;59.96;102466.80;1749761;82;21050;-34
2020/12/07 09:33:47;;;;;;;14.70;6.75;;;;;;;-6.09;59.93;102476.88;1749727;82;21352;-35
2020/12/07 09:36:15;;;;;;;19.07;7.97;;;;;;;-6.01;60.02;102438.06;1749840;82;20920;-33
2020/12/07 09:38:43;;;;;;;20.30;7.75;;;;;;;-5.89;59.41;102464.98;1749784;82;20912;-33
2020/12/07 09:41:10;;;;;;;19.32;7.72;;;;;;;-5.87;59.57;102474.45;1749798;82;21353;-35
2020/12/07 09:43:39;;;;;;;22.30;7.60;;;;;;;-5.79;59.69;102464.59;1749740;82;21002;-35
2020/12/07 09:46:07;;;;;;;19.15;6.78;;;;;;;-5.66;59.15;102455.50;1749772;82;21007;-33
2020/12/07 09:48:35;;;;;;;32.05;6.30;;;;;;;-5.53;59.15;102443.08;1749796;82;20931;-33
2020/12/07 09:51:04;;;;;;;14.55;6.75;;;;;;;-5.39;57.55;102443.30;1749647;82;20911;-34
2020/12/07 09:53:32;;;;;;;27.37;7.05;;;;;;;-5.50;58.29;102439.92;1749831;82;22226;-34
2020/12/07 09:55:59;;;;;;;22.27;7.28;;;;;;;-5.39;58.43;102441.64;1749657;82;20987;-33
2020/12/07 09:58:27;;;;;;;20.45;7.47;;;;;;;-5.29;58.01;102452.48;1749719;82;21026;-33
2020/12/07 10:00:55;;;;;;;21.25;7.05;;;;;;;-5.38;57.95;102443.80;1749543;82;20928;-33
2020/12/07 10:03:23;;;;;;;25.45;8.20;;;;;;;-5.37;57.78;102412.73;1749773;81;20983;-35
2020/12/07 10:05:51;;;;;;;18.85;6.87;;;;;;;-5.38;58.51;102445.06;1749794;82;21201;-34
2020/12/07 10:08:19;;;;;;;22.22;8.75;;;;;;;-5.24;57.53;102417.96;1749627;82;21019;-35
2020/12/07 10:10:48;;;;;;;19.87;8.88;;;;;;;-5.15;58.09;102437.14;1750097;81;21517;-34
2020/12/07 10:13:18;;;;;;;15.83;7.60;;;;;;;-4.98;57.86;102442.23;1749776;82;21031;-33
2020/12/07 10:15:46;;;;;;;13.40;6.78;;;;;;;-4.82;57.77;102432.91;1750581;82;21066;-33
2020/12/07 10:18:14;;;;;;;18.27;7.17;;;;;;;-4.71;56.06;102424.48;1750557;82;21394;-35
2020/12/07 10:20:45;;;;;;;17.50;7.60;;;;;;;-4.82;56.43;102444.28;1750372;80;20939;-34
2020/12/07 10:23:13;;;;;;;17.77;7.50;;;;;;;-4.87;57.06;102440.13;1723045;82;20987;-34
2020/12/07 10:25:40;;;;;;;19.73;8.33;;;;;;;-4.87;56.71;102433.81;1749991;82;21006;-33
2020/12/07 10:28:08;;;;;;;22.48;7.47;;;;;;;-4.89;57.40;102434.47;1749942;82;21006;-32
2020/12/07 10:30:36;;;;;;;14.35;7.45;;;;;;;-4.70;57.24;102422.84;1749945;82;21460;-34
2020/12/07 10:33:04;;;;;;;18.05;6.83;;;;;;;-4.70;56.35;102436.75;1749807;82;20936;-32
2020/12/07 10:35:31;;;;;;;15.13;7.08;;;;;;;-4.75;56.59;102404.80;1749981;82;21034;-34
2020/12/07 10:38:01;;;;;;;19.07;8.88;;;;;;;-4.68;56.40;102427.23;1749581;82;20991;-34
2020/12/07 10:40:29;;;;;;;18.60;7.55;;;;;;;-4.63;56.13;102394.73;1750007;82;20991;-34
2020/12/07 10:42:57;;;;;;;29.32;8.65;;;;;;;-4.71;56.14;102411.84;1749962;82;22582;-33
2020/12/07 10:45:25;;;;;;;23.73;7.83;;;;;;;-4.65;56.71;102418.64;1749973;80;21031;-34
2020/12/07 10:47:54;;;;;;;21.10;8.05;;;;;;;-4.52;55.87;102414.13;1750002;82;20931;-35
2020/12/07 10:50:21;;;;;;;25.43;6.95;;;;;;;-4.52;55.95;102414.49;1749916;82;20931;-33
2020/12/07 10:52:50;;;;;;;18.90;6.53;;;;;;;-4.52;55.27;102394.27;1749913;82;20928;-33
2020/12/07 10:55:18;;;;;;;23.50;7.65;;;;;;;-4.66;55.44;102414.36;1749986;82;22240;-33
2020/12/07 10:57:46;;;;;;;26.23;8.10;;;;;;;-4.64;55.65;102377.80;1749979;82;21104;-35
2020/12/07 11:00:14;;;;;;;27.30;7.85;;;;;;;-4.66;55.74;102399.56;1749926;82;20979;-37
2020/12/07 11:02:42;;;;;;;17.87;7.87;;;;;;;-4.58;56.05;102403.92;1750033;82;21047;-33
2020/12/07 11:05:10;;;;;;;19.23;7.55;;;;;;;-4.54;55.93;102411.87;1749951;82;21066;-35
2020/12/07 11:07:40;;;;;;;24.85;7.40;;;;;;;-4.45;56.06;102399.00;1750054;82;22731;-34
2020/12/07 11:10:07;;;;;;;19.98;8.70;;;;;;;-4.40;55.67;102421.74;1748082;81;21083;-34
2020/12/07 11:12:37;;;;;;;19.95;8.03;;;;;;;-4.36;55.55;102426.63;1735972;82;20889;-34
2020/12/07 11:15:06;;;;;;;20.88;8.75;;;;;;;-4.25;55.35;102418.20;1735862;82;20927;-34
2020/12/07 11:17:34;;;;;;;18.35;8.33;;;;;;;-4.21;54.76;102420.55;1715592;82;20916;-34
2020/12/07 11:20:02;;;;;;;17.35;7.85;;;;;;;-4.21;54.66;102406.27;1735982;81;21420;-33
2020/12/07 11:22:30;;;;;;;17.85;6.90;;;;;;;-4.22;54.31;102409.56;1735910;82;21000;-34
2020/12/07 11:24:58;;;;;;;20.97;7.12;;;;;;;-4.24;54.17;102409.84;1735944;82;21011;-35
2020/12/07 11:27:27;;;;;;;20.97;7.47;;;;;;;-4.26;54.95;102408.84;1734507;82;21090;-33
2020/12/07 11:29:55;;;;;;;20.88;7.42;;;;;;;-4.15;54.37;102395.73;1735949;82;20976;-32
2020/12/07 11:32:23;;;;;;;33.02;8.58;;;;;;;-4.16;54.05;102411.67;1735914;82;21283;-35
2020/12/07 11:34:51;;;;;;;21.80;7.55;;;;;;;-4.20;54.85;102409.66;1735812;82;21035;-34
2020/12/07 11:37:19;;;;;;;28.15;7.45;;;;;;;-4.27;54.78;102396.97;1735926;82;20991;-33
2020/12/07 11:39:57;;;;;;;16.80;7.60;;;;;;;-4.31;54.67;102393.70;1735852;82;21024;-33
2020/12/07 11:44:48;;;;;;;19.30;8.55;;;;;;;-4.36;55.08;102395.02;1735918;82;21368;-33
2020/12/07 11:47:16;;;;;;;18.95;7.65;;;;;;;-4.34;55.89;102399.42;1735831;82;21050;-34
2020/12/07 11:49:47;;;;;;;18.00;8.03;;;;;;;-4.23;54.79;102396.42;1735846;82;20932;-35
2020/12/07 11:52:13;;;;;;;16.93;7.67;;;;;;;-4.28;55.21;102395.58;1735859;82;21047;-33
2020/12/07 11:54:41;;;;;;;20.68;8.38;;;;;;;-4.26;55.21;102392.78;1735897;82;21004;-34
2020/12/07 11:57:09;;;;;;;19.05;8.03;;;;;;;-4.23;55.48;102371.50;1735996;82;21208;-34
2020/12/07 11:59:38;;;;;;;21.80;7.42;;;;;;;-4.28;55.26;102391.42;1735787;82;21043;-34
2020/12/07 12:02:05;;;;;;;22.32;8.75;;;;;;;-4.31;55.54;102392.83;1735878;82;20979;-33
2020/12/07 12:04:33;;;;;;;16.00;6.95;;;;;;;-4.36;55.46;102388.69;1735874;82;20924;-33
2020/12/07 12:07:01;;;;;;;25.62;7.58;;;;;;;-4.46;55.84;102387.13;1735836;82;20988;-33
2020/12/07 12:09:29;;;;;;;16.55;8.08;;;;;;;-4.52;56.30;102386.31;1735917;82;21133;-33